createdAt,value
2018-06-27T00:00:58.172Z,5.47
2018-06-27T00:03:26.621Z,4.90
2018-06-27T00:05:55.744Z,4.73
2018-06-27T00:08:24.292Z,3.50
2018-06-27T00:10:52.742Z,9.43
2018-06-27T00:13:21.283Z,8.40
2018-06-27T00:15:49.793Z,7.20
2018-06-27T00:18:19.243Z,6.50
2018-06-27T00:20:47.714Z,10.13
2018-06-27T00:23:16.321Z,10.40
2018-06-27T00:25:44.833Z,5.50
2018-06-27T00:28:13.304Z,4.83
2018-06-27T00:30:41.799Z,6.37
2018-06-27T00:33:10.260Z,5.43
2018-06-27T00:35:38.765Z,7.50
2018-06-27T00:38:13.175Z,6.23
2018-06-27T00:40:41.841Z,10.43
2018-06-27T00:43:10.372Z,5.07
2018-06-27T00:45:38.841Z,6.97
2018-06-27T00:48:07.645Z,9.60
2018-06-27T00:50:36.147Z,9.70
2018-06-27T00:53:04.616Z,4.47
2018-06-27T00:55:33.155Z,9.87
2018-06-27T00:58:02.277Z,11.00
2018-06-27T01:00:30.901Z,11.70
2018-06-27T01:02:59.345Z,9.53
2018-06-27T01:05:27.905Z,10.83
2018-06-27T01:07:57.256Z,11.40
2018-06-27T01:10:25.811Z,11.77
2018-06-27T01:12:55.079Z,8.30
2018-06-27T01:15:23.656Z,14.03
2018-06-27T01:17:54.313Z,7.57
2018-06-27T01:20:22.812Z,11.70
2018-06-27T01:22:51.838Z,13.50
2018-06-27T01:25:21.001Z,6.13
2018-06-27T01:27:49.531Z,5.60
2018-06-27T01:30:18.177Z,6.43
2018-06-27T01:32:46.745Z,10.70
2018-06-27T01:35:15.292Z,6.93
2018-06-27T01:37:44.022Z,7.47
2018-06-27T01:40:12.566Z,9.23
2018-06-27T01:42:41.463Z,6.53
2018-06-27T01:45:10.553Z,5.63
2018-06-27T01:47:39.031Z,9.30
2018-06-27T01:50:07.482Z,8.77
2018-06-27T01:52:36.808Z,7.27
2018-06-27T01:55:05.360Z,10.40
2018-06-27T01:57:33.982Z,12.97
2018-06-27T02:00:02.576Z,11.83
2018-06-27T02:02:31.040Z,7.00
2018-06-27T02:04:59.581Z,6.73
2018-06-27T02:07:28.859Z,5.70
2018-06-27T02:09:57.338Z,5.90
2018-06-27T02:12:25.822Z,5.47
2018-06-27T02:14:54.385Z,8.63
2018-06-27T02:17:23.727Z,6.03
2018-06-27T02:19:52.220Z,7.37
2018-06-27T02:22:20.755Z,8.43
2018-06-27T02:24:49.948Z,5.60
2018-06-27T02:27:18.541Z,5.73
2018-06-27T02:29:47.106Z,10.80
2018-06-27T02:32:15.554Z,9.17
2018-06-27T02:34:44.182Z,9.37
2018-06-27T02:37:13.221Z,9.37
2018-06-27T02:39:41.694Z,15.63
2018-06-27T02:42:11.036Z,11.10
2018-06-27T02:44:39.453Z,8.50
2018-06-27T02:47:07.900Z,10.47
2018-06-27T02:49:37.140Z,5.07
2018-06-27T02:52:06.335Z,8.07
2018-06-27T02:54:35.557Z,14.57
2018-06-27T02:57:04.661Z,16.43
2018-06-27T02:59:33.185Z,13.23
2018-06-27T03:02:02.350Z,14.63
2018-06-27T03:04:30.866Z,12.13
2018-06-27T03:06:59.529Z,5.90
2018-06-27T03:09:28.080Z,4.87
2018-06-27T03:11:57.034Z,9.47
2018-06-27T03:14:25.484Z,6.43
2018-06-27T03:16:54.618Z,7.87
2018-06-27T03:19:23.056Z,8.13
2018-06-27T03:21:51.534Z,7.30
2018-06-27T03:24:20.078Z,6.87
2018-06-27T03:26:48.621Z,8.10
2018-06-27T03:29:17.941Z,6.27
2018-06-27T03:31:46.594Z,13.17
2018-06-27T03:34:15.188Z,5.43
2018-06-27T03:36:43.630Z,5.73
2018-06-27T03:39:12.076Z,7.20
2018-06-27T03:41:41.005Z,6.17
2018-06-27T03:44:09.530Z,6.10
2018-06-27T03:46:37.988Z,10.63
2018-06-27T03:49:07.176Z,6.60
2018-06-27T03:51:35.716Z,5.03
2018-06-27T03:54:05.317Z,5.87
2018-06-27T03:56:34.325Z,5.60
2018-06-27T03:59:03.503Z,6.10
2018-06-27T04:01:32.921Z,14.97
2018-06-27T04:04:01.858Z,13.50
2018-06-27T04:06:30.362Z,13.03
2018-06-27T04:08:58.817Z,10.63
2018-06-27T04:11:27.464Z,15.87
2018-06-27T04:13:56.862Z,7.80
2018-06-27T04:16:25.367Z,17.50
2018-06-27T04:18:53.832Z,16.23
2018-06-27T04:21:22.469Z,14.90
2018-06-27T04:23:50.986Z,18.57
2018-06-27T04:26:19.444Z,11.83
2018-06-27T04:28:47.865Z,16.63
2018-06-27T04:31:16.464Z,8.30
2018-06-27T04:33:45.043Z,14.17
2018-06-27T04:36:13.631Z,11.30
2018-06-27T04:38:41.973Z,8.03
2018-06-27T04:41:10.567Z,6.60
2018-06-27T04:43:39.039Z,5.77
2018-06-27T04:46:07.530Z,5.13
2018-06-27T04:48:36.126Z,6.43
2018-06-27T04:51:04.697Z,5.57
2018-06-27T04:53:33.191Z,5.87
2018-06-27T04:56:01.780Z,13.77
2018-06-27T04:58:30.969Z,7.93
2018-06-27T05:00:59.517Z,12.10
2018-06-27T05:03:28.644Z,6.67
2018-06-27T05:05:57.148Z,5.30
2018-06-27T05:08:26.068Z,6.63
2018-06-27T05:10:54.521Z,7.87
2018-06-27T05:13:23.587Z,5.50
2018-06-27T05:15:52.098Z,10.50
2018-06-27T05:18:20.682Z,6.70
2018-06-27T05:20:49.245Z,5.93
2018-06-27T05:23:17.689Z,9.43
2018-06-27T05:25:46.386Z,9.27
2018-06-27T05:28:16.033Z,12.50
2018-06-27T05:30:44.595Z,9.70
2018-06-27T05:33:13.045Z,7.87
2018-06-27T05:35:41.573Z,6.80
2018-06-27T05:38:10.037Z,13.40
2018-06-27T05:40:38.813Z,8.97
2018-06-27T05:43:07.364Z,8.90
2018-06-27T05:45:35.810Z,18.03
2018-06-27T05:48:04.561Z,23.57
2018-06-27T05:50:33.929Z,10.00
2018-06-27T05:53:03.617Z,20.60
2018-06-27T05:55:32.061Z,11.60
2018-06-27T05:58:01.170Z,11.13
2018-06-27T06:00:29.585Z,12.63
2018-06-27T06:02:58.074Z,9.53
2018-06-27T06:05:26.564Z,15.47
2018-06-27T06:07:55.185Z,9.40
2018-06-27T06:10:23.657Z,22.70
2018-06-27T06:12:52.152Z,14.60
2018-06-27T06:15:20.687Z,19.70
2018-06-27T06:17:49.710Z,11.47
2018-06-27T06:20:18.202Z,13.33
2018-06-27T06:22:46.783Z,13.53
2018-06-27T06:25:15.774Z,15.67
2018-06-27T06:27:44.306Z,16.57
2018-06-27T06:30:12.848Z,16.80
2018-06-27T06:32:41.353Z,18.60
2018-06-27T06:35:09.894Z,18.37
2018-06-27T06:37:38.449Z,15.03
2018-06-27T06:40:07.014Z,18.00
2018-06-27T06:42:36.005Z,13.33
2018-06-27T06:45:04.637Z,11.60
2018-06-27T06:47:33.192Z,19.63
2018-06-27T06:50:01.658Z,20.17
2018-06-27T06:52:30.931Z,13.77
2018-06-27T06:54:59.426Z,14.30
2018-06-27T06:57:28.425Z,13.03
2018-06-27T06:59:56.899Z,17.97
2018-06-27T07:02:25.368Z,15.57
2018-06-27T07:04:54.017Z,15.57
2018-06-27T07:07:23.411Z,18.10
2018-06-27T07:09:52.765Z,20.70
2018-06-27T07:12:21.721Z,16.57
2018-06-27T07:14:50.998Z,17.67
2018-06-27T07:17:20.224Z,17.47
2018-06-27T07:19:48.790Z,13.87
2018-06-27T07:22:17.298Z,15.40
2018-06-27T07:24:46.933Z,11.60
2018-06-27T07:27:15.565Z,11.63
2018-06-27T07:29:44.033Z,12.97
2018-06-27T07:32:12.590Z,16.37
2018-06-27T07:34:41.148Z,13.77
2018-06-27T07:37:09.630Z,13.63
2018-06-27T07:39:38.060Z,12.90
2018-06-27T07:42:06.590Z,12.00
2018-06-27T07:44:35.237Z,7.43
2018-06-27T07:47:03.599Z,6.67
2018-06-27T07:49:32.190Z,10.70
2018-06-27T07:52:01.483Z,10.07
2018-06-27T07:54:34.309Z,10.70
2018-06-27T07:57:02.790Z,10.57
2018-06-27T07:59:31.408Z,10.93
2018-06-27T08:01:59.906Z,10.63
2018-06-27T08:04:28.549Z,13.67
2018-06-27T08:06:57.038Z,8.63
2018-06-27T08:09:26.306Z,8.93
2018-06-27T08:11:54.778Z,9.37
2018-06-27T08:14:23.291Z,9.07
2018-06-27T08:16:51.856Z,7.90
2018-06-27T08:19:20.309Z,8.80
2018-06-27T08:21:49.063Z,9.67
2018-06-27T08:24:17.558Z,7.20
2018-06-27T08:26:46.054Z,6.87
2018-06-27T08:29:14.506Z,6.00
2018-06-27T08:31:43.093Z,4.97
2018-06-27T08:34:11.808Z,7.37
2018-06-27T08:36:40.297Z,7.40
2018-06-27T08:39:10.021Z,6.73
2018-06-27T08:41:39.131Z,6.10
2018-06-27T08:44:07.737Z,3.77
2018-06-27T08:46:36.223Z,6.07
2018-06-27T08:49:04.761Z,5.33
2018-06-27T08:51:33.365Z,9.23
2018-06-27T08:54:02.381Z,4.43
2018-06-27T08:56:30.951Z,6.37
2018-06-27T08:58:59.477Z,6.93
2018-06-27T09:01:27.971Z,6.72
2018-06-27T09:03:57.280Z,7.10
2018-06-27T09:06:25.897Z,5.58
2018-06-27T09:08:54.393Z,7.08
2018-06-27T09:11:22.924Z,6.90
2018-06-27T09:13:51.498Z,4.35
2018-06-27T09:16:19.941Z,3.95
2018-06-27T09:18:48.630Z,6.78
2018-06-27T09:21:17.105Z,5.60
2018-06-27T09:23:46.093Z,9.30
2018-06-27T09:26:14.541Z,7.35
2018-06-27T09:28:43.684Z,9.25
2018-06-27T09:31:12.155Z,6.33
2018-06-27T09:33:40.624Z,5.53
2018-06-27T09:36:09.746Z,5.78
2018-06-27T09:38:38.142Z,5.90
2018-06-27T09:41:06.725Z,7.55
2018-06-27T09:43:35.205Z,9.05
2018-06-27T09:46:03.727Z,7.78
2018-06-27T09:48:32.238Z,7.45
2018-06-27T09:51:00.706Z,6.40
2018-06-27T09:53:29.965Z,6.83
2018-06-27T09:55:58.446Z,6.17
2018-06-27T09:58:27.674Z,8.28
2018-06-27T10:00:56.142Z,8.25
2018-06-27T10:03:24.623Z,7.03
2018-06-27T10:05:53.114Z,4.92
2018-06-27T10:08:21.601Z,7.40
2018-06-27T10:10:50.630Z,5.97
2018-06-27T10:13:19.121Z,7.80
2018-06-27T10:15:47.641Z,7.22
2018-06-27T10:18:16.233Z,7.40
2018-06-27T10:20:45.361Z,7.90
2018-06-27T10:23:14.070Z,7.58
2018-06-27T10:25:42.594Z,3.45
2018-06-27T10:28:11.160Z,5.10
2018-06-27T10:30:39.753Z,6.10
2018-06-27T10:33:08.943Z,6.90
2018-06-27T10:35:37.492Z,3.30
2018-06-27T10:38:06.081Z,6.15
2018-06-27T10:40:35.202Z,3.00
2018-06-27T10:43:03.715Z,2.40
2018-06-27T10:45:32.239Z,2.60
2018-06-27T10:48:01.260Z,2.62
2018-06-27T10:50:29.729Z,3.60
2018-06-27T10:52:58.189Z,2.80
2018-06-27T10:55:26.794Z,3.98
2018-06-27T10:57:56.120Z,5.45
2018-06-27T11:00:24.541Z,5.95
2018-06-27T11:02:53.017Z,2.72
2018-06-27T11:05:21.537Z,3.15
2018-06-27T11:07:50.488Z,5.40
2018-06-27T11:10:19.074Z,3.17
2018-06-27T11:12:47.596Z,4.33
2018-06-27T11:15:16.009Z,4.75
2018-06-27T11:17:44.455Z,3.45
2018-06-27T11:20:12.990Z,4.60
2018-06-27T11:22:41.583Z,4.03
2018-06-27T11:25:10.581Z,4.50
2018-06-27T11:27:39.610Z,2.67
2018-06-27T11:30:08.660Z,5.08
2018-06-27T11:32:37.139Z,3.00
2018-06-27T11:35:05.628Z,4.25
2018-06-27T11:37:35.111Z,4.28
2018-06-27T11:40:04.107Z,5.80
2018-06-27T11:42:32.648Z,2.95
2018-06-27T11:45:01.211Z,4.50
2018-06-27T11:47:29.984Z,4.22
2018-06-27T11:49:59.690Z,2.60
2018-06-27T11:52:28.733Z,4.20
2018-06-27T11:55:03.166Z,2.30
2018-06-27T11:57:31.621Z,3.58
2018-06-27T12:00:00.221Z,2.95
2018-06-27T12:02:28.820Z,4.45
2018-06-27T12:04:57.289Z,2.98
2018-06-27T12:07:25.890Z,2.17
2018-06-27T12:09:54.406Z,2.50
2018-06-27T12:12:22.943Z,2.00
2018-06-27T12:14:52.244Z,3.75
2018-06-27T12:17:20.666Z,3.15
2018-06-27T12:19:49.795Z,3.77
2018-06-27T12:22:18.358Z,2.33
2018-06-27T12:24:46.952Z,1.67
2018-06-27T12:27:15.469Z,5.78
2018-06-27T12:29:44.045Z,3.05
2018-06-27T12:32:12.758Z,1.77
2018-06-27T12:34:41.348Z,1.92
2018-06-27T12:37:10.334Z,4.65
2018-06-27T12:39:39.583Z,1.40
2018-06-27T12:42:08.340Z,2.17
2018-06-27T12:44:36.915Z,2.45
2018-06-27T12:47:05.548Z,2.62
2018-06-27T12:49:34.039Z,8.55
2018-06-27T12:52:02.557Z,1.72
2018-06-27T12:54:31.860Z,2.90
2018-06-27T12:57:00.616Z,1.42
2018-06-27T12:59:29.147Z,2.15
2018-06-27T13:01:57.796Z,2.37
2018-06-27T13:04:26.239Z,1.62
2018-06-27T13:06:54.737Z,3.12
2018-06-27T13:09:23.245Z,2.67
2018-06-27T13:11:51.709Z,1.22
2018-06-27T13:14:20.185Z,3.37
2018-06-27T13:16:48.652Z,2.17
2018-06-27T13:19:17.266Z,2.72
2018-06-27T13:21:45.678Z,6.28
2018-06-27T13:24:14.141Z,1.12
2018-06-27T13:26:42.627Z,1.25
2018-06-27T13:29:11.108Z,2.55
2018-06-27T13:31:39.575Z,1.62
2018-06-27T13:34:07.990Z,1.87
2018-06-27T13:36:36.458Z,1.22
2018-06-27T13:39:07.553Z,1.10
2018-06-27T13:41:36.238Z,4.12
2018-06-27T13:44:05.263Z,2.67
2018-06-27T13:46:34.371Z,3.10
2018-06-27T13:49:04.683Z,1.37
2018-06-27T13:51:33.237Z,2.85
2018-06-27T13:54:02.581Z,1.40
2018-06-27T13:56:31.035Z,4.15
2018-06-27T13:58:59.691Z,1.67
2018-06-27T14:01:28.327Z,1.25
2018-06-27T14:03:56.836Z,1.50
2018-06-27T14:06:25.355Z,2.67
2018-06-27T14:08:55.110Z,1.17
2018-06-27T14:11:23.848Z,1.60
2018-06-27T14:13:52.391Z,1.30
2018-06-27T14:16:20.929Z,1.98
2018-06-27T14:18:49.487Z,4.03
2018-06-27T14:21:19.072Z,1.65
2018-06-27T14:23:47.653Z,2.20
2018-06-27T14:26:16.256Z,1.50
2018-06-27T14:28:44.868Z,1.77
2018-06-27T14:31:13.384Z,1.95
2018-06-27T14:33:42.542Z,1.40
2018-06-27T14:36:11.074Z,2.02
2018-06-27T14:38:40.397Z,1.70
2018-06-27T14:41:08.960Z,2.25
2018-06-27T14:43:37.450Z,1.30
2018-06-27T14:46:06.132Z,1.22
2018-06-27T14:48:34.782Z,1.70
2018-06-27T14:51:03.378Z,2.35
2018-06-27T14:53:31.858Z,1.57
2018-06-27T14:56:00.515Z,2.20
2018-06-27T14:58:29.045Z,2.77
2018-06-27T15:00:57.613Z,2.17
2018-06-27T15:03:26.158Z,2.75
2018-06-27T15:13:14.590Z,1.90
2018-06-27T15:15:43.345Z,1.72
2018-06-27T15:18:16.273Z,1.80
2018-06-27T15:20:51.264Z,2.55
2018-06-27T15:23:19.745Z,1.77
2018-06-27T15:25:48.293Z,2.95
2018-06-27T15:28:16.900Z,1.98
2018-06-27T15:30:46.040Z,2.02
2018-06-27T15:33:14.632Z,2.83
2018-06-27T15:35:43.165Z,2.98
2018-06-27T15:38:11.822Z,1.55
2018-06-27T15:40:40.421Z,2.50
2018-06-27T15:43:08.920Z,2.35
2018-06-27T15:45:37.485Z,1.87
2018-06-27T15:48:06.123Z,2.42
2018-06-27T15:50:34.665Z,2.45
2018-06-27T15:53:03.505Z,2.30
2018-06-27T15:55:32.726Z,2.40
2018-06-27T15:58:01.282Z,2.22
2018-06-27T16:00:29.973Z,2.87
2018-06-27T16:02:58.630Z,2.00
2018-06-27T16:05:27.129Z,1.50
2018-06-27T16:07:55.647Z,1.92
2018-06-27T16:10:24.137Z,1.45
2018-06-27T16:12:52.893Z,1.50
2018-06-27T16:15:21.424Z,1.17
2018-06-27T16:17:50.031Z,1.90
2018-06-27T16:20:18.650Z,3.22
2018-06-27T16:22:47.220Z,2.07
2018-06-27T16:25:15.696Z,1.40
2018-06-27T16:27:44.341Z,2.00
2018-06-27T16:30:12.883Z,2.57
2018-06-27T16:32:41.458Z,3.63
2018-06-27T16:35:09.976Z,1.60
2018-06-27T16:37:38.597Z,2.08
2018-06-27T16:40:07.243Z,2.07
2018-06-27T16:42:35.811Z,2.95
2018-06-27T16:45:04.410Z,1.77
2018-06-27T16:47:32.932Z,2.42
2018-06-27T16:50:01.456Z,3.00
2018-06-27T16:52:29.934Z,2.67
2018-06-27T16:54:58.613Z,2.03
2018-06-27T16:57:27.399Z,2.30
2018-06-27T16:59:55.977Z,1.10
2018-06-27T17:02:24.640Z,2.05
2018-06-27T17:04:53.206Z,1.35
2018-06-27T17:07:21.739Z,1.77
2018-06-27T17:09:50.818Z,1.40
2018-06-27T17:12:19.386Z,2.87
2018-06-27T17:14:48.022Z,1.50
2018-06-27T17:17:16.709Z,4.83
2018-06-27T17:19:45.198Z,2.53
2018-06-27T17:22:13.735Z,1.37
2018-06-27T17:24:43.759Z,2.73
2018-06-27T17:27:12.344Z,4.13
2018-06-27T17:29:41.067Z,2.33
2018-06-27T17:32:09.727Z,3.00
2018-06-27T17:34:38.338Z,2.40
2018-06-27T17:37:06.914Z,2.13
2018-06-27T17:39:35.440Z,2.80
2018-06-27T17:42:04.889Z,2.97
2018-06-27T17:44:33.437Z,1.47
2018-06-27T17:47:02.029Z,2.17
2018-06-27T17:49:30.663Z,1.30
2018-06-27T17:51:59.201Z,1.63
2018-06-27T17:54:27.843Z,3.77
2018-06-27T17:56:56.526Z,1.70
2018-06-27T17:59:25.046Z,4.87
2018-06-27T18:01:53.595Z,2.27
2018-06-27T18:04:22.102Z,3.03
2018-06-27T18:06:50.711Z,6.20
2018-06-27T18:09:19.272Z,2.10
2018-06-27T18:11:47.823Z,2.60
2018-06-27T18:14:16.606Z,5.03
2018-06-27T18:16:45.171Z,4.53
2018-06-27T18:19:14.342Z,3.60
2018-06-27T18:21:42.872Z,2.80
2018-06-27T18:24:17.880Z,4.23
2018-06-27T18:26:46.523Z,2.83
2018-06-27T18:29:15.167Z,2.47
2018-06-27T18:31:44.448Z,2.83
2018-06-27T18:34:13.003Z,2.73
2018-06-27T18:36:41.707Z,3.23
2018-06-27T18:39:11.154Z,2.40
2018-06-27T18:41:39.863Z,3.93
2018-06-27T18:44:08.424Z,3.07
2018-06-27T18:46:37.271Z,1.83
2018-06-27T18:49:06.739Z,2.90
2018-06-27T18:51:35.975Z,7.20
2018-06-27T18:54:04.606Z,2.27
2018-06-27T18:56:33.138Z,3.63
2018-06-27T18:59:01.690Z,2.10
2018-06-27T19:01:30.230Z,3.77
2018-06-27T19:03:59.462Z,3.10
2018-06-27T19:06:28.073Z,4.97
2018-06-27T19:08:56.613Z,5.70
2018-06-27T19:11:25.237Z,3.50
2018-06-27T19:13:53.811Z,3.33
2018-06-27T19:16:22.386Z,4.40
2018-06-27T19:18:50.930Z,4.03
2018-06-27T19:21:19.739Z,2.13
2018-06-27T19:23:49.134Z,10.53
2018-06-27T19:26:18.413Z,2.30
2018-06-27T19:28:46.963Z,2.40
2018-06-27T19:31:15.533Z,5.27
2018-06-27T19:33:44.136Z,5.47
2018-06-27T19:36:12.653Z,4.30
2018-06-27T19:38:41.178Z,3.07
2018-06-27T19:41:09.801Z,7.83
2018-06-27T19:43:38.330Z,5.70
2018-06-27T19:46:07.402Z,2.97
2018-06-27T19:48:36.700Z,3.67
2018-06-27T19:51:05.210Z,8.07
2018-06-27T19:53:33.849Z,2.93
2018-06-27T19:56:02.539Z,4.00
2018-06-27T19:58:31.331Z,3.80
2018-06-27T20:00:59.892Z,3.67
2018-06-27T20:03:28.869Z,7.30
2018-06-27T20:05:57.476Z,3.57
2018-06-27T20:08:26.014Z,4.30
2018-06-27T20:10:54.558Z,4.90
2018-06-27T20:13:23.407Z,5.50
2018-06-27T20:15:52.050Z,3.33
2018-06-27T20:18:21.502Z,8.33
2018-06-27T20:20:50.115Z,5.67
2018-06-27T20:23:18.694Z,2.40
2018-06-27T20:25:47.267Z,6.27
2018-06-27T20:28:15.971Z,2.80
2018-06-27T20:30:44.531Z,3.47
2018-06-27T20:33:13.913Z,2.87
2018-06-27T20:35:43.855Z,6.57
2018-06-27T20:38:13.095Z,5.43
2018-06-27T20:40:41.641Z,4.83
2018-06-27T20:43:10.160Z,4.00
2018-06-27T20:45:38.656Z,4.93
2018-06-27T20:48:07.197Z,3.93
2018-06-27T20:50:36.320Z,4.63
2018-06-27T20:53:05.193Z,3.40
2018-06-27T20:55:33.955Z,2.20
2018-06-27T20:58:02.293Z,2.53
2018-06-27T21:00:30.898Z,4.10
2018-06-27T21:02:59.520Z,3.37
2018-06-27T21:05:28.110Z,4.83
2018-06-27T21:07:56.688Z,2.60
2018-06-27T21:10:25.154Z,3.70
2018-06-27T21:12:53.680Z,3.70
2018-06-27T21:15:22.181Z,5.37
2018-06-27T21:17:50.803Z,3.27
2018-06-27T21:20:20.295Z,4.53
2018-06-27T21:22:48.971Z,4.73
2018-06-27T21:25:17.614Z,4.10
2018-06-27T21:27:46.122Z,2.53
2018-06-27T21:30:15.294Z,3.03
2018-06-27T21:32:43.827Z,6.97
2018-06-27T21:35:12.316Z,4.37
2018-06-27T21:37:41.405Z,4.40
2018-06-27T21:40:09.934Z,2.67
2018-06-27T21:42:38.427Z,2.40
2018-06-27T21:45:06.964Z,4.93
2018-06-27T21:47:35.629Z,3.50
2018-06-27T21:50:04.204Z,4.80
2018-06-27T21:52:32.899Z,3.93
2018-06-27T21:55:01.432Z,6.17
2018-06-27T21:57:30.085Z,3.47
2018-06-27T21:59:58.725Z,2.50
2018-06-27T22:02:27.217Z,2.40
2018-06-27T22:04:56.296Z,2.10
2018-06-27T22:07:24.922Z,2.87
2018-06-27T22:09:53.499Z,3.13
2018-06-27T22:12:22.144Z,2.40
2018-06-27T22:14:51.378Z,3.80
2018-06-27T22:17:20.158Z,3.53
2018-06-27T22:19:48.844Z,2.47
2018-06-27T22:22:17.628Z,3.30
2018-06-27T22:24:46.242Z,2.53
2018-06-27T22:27:15.093Z,2.60
2018-06-27T22:29:44.207Z,4.87
2018-06-27T22:32:12.687Z,5.40
2018-06-27T22:34:41.839Z,4.47
2018-06-27T22:37:10.487Z,3.43
2018-06-27T22:39:40.018Z,2.93
2018-06-27T22:42:08.900Z,7.87
2018-06-27T22:44:37.406Z,2.50
2018-06-27T22:47:06.269Z,3.83
2018-06-27T22:49:35.196Z,2.00
2018-06-27T22:52:03.837Z,4.83
2018-06-27T22:54:32.370Z,3.30
2018-06-27T22:57:00.902Z,2.20
2018-06-27T22:59:29.498Z,9.53
2018-06-27T23:01:58.037Z,1.90
2018-06-27T23:04:26.874Z,2.53
2018-06-27T23:06:56.227Z,3.00
2018-06-27T23:09:24.791Z,2.87
2018-06-27T23:11:53.360Z,2.40
2018-06-27T23:14:22.048Z,3.40
2018-06-27T23:16:50.561Z,3.83
2018-06-27T23:19:19.862Z,2.83
2018-06-27T23:21:48.443Z,2.10
2018-06-27T23:24:17.862Z,2.50
2018-06-27T23:26:46.419Z,2.57
2018-06-27T23:29:15.065Z,2.43
2018-06-27T23:31:43.619Z,2.60
2018-06-27T23:34:12.109Z,2.80
2018-06-27T23:36:40.678Z,3.57
2018-06-27T23:39:11.126Z,2.63
2018-06-27T23:41:40.356Z,3.70
2018-06-27T23:44:09.940Z,2.87
2018-06-27T23:46:38.643Z,4.43
2018-06-27T23:49:07.220Z,2.80
2018-06-27T23:51:35.939Z,4.47
2018-06-27T23:54:04.539Z,2.80
2018-06-27T23:56:33.069Z,2.53
2018-06-27T23:59:02.598Z,3.03
